Time;durP1;ratioP1;P1;durP2;ratioP2;P2;SDS_P1;SDS_P2;PMS_P1;PMS_P2;Temp;Humidity;BMP_temperature;BMP_pressure;BME280_temperature;BME280_humidity;BME280_pressure;Samples;Min_cycle;Max_cycle;Signal;HPM_P1;HPM_P2
2024/03/31 00:01:15;;;;;;;4.60;1.90;;;;;;;10.84;64.20;99725.48;79506;1297;3013386;-60
2024/03/31 00:03:44;;;;;;;9.30;1.80;;;;;;;10.84;64.29;99727.09;79568;1314;3012110;-61
2024/03/31 00:06:11;;;;;;;6.10;2.60;;;;;;;10.72;64.67;99726.84;77907;1300;3051838;-63
2024/03/31 00:08:38;;;;;;;6.10;2.30;;;;;;;10.73;64.67;99725.59;79484;1298;3013077;-61
2024/03/31 00:11:07;;;;;;;5.00;2.10;;;;;;;10.70;64.81;99728.73;79293;1296;3013312;-61
2024/03/31 00:13:36;;;;;;;4.20;1.60;;;;;;;10.68;64.80;99725.52;78107;1298;3050311;-61
2024/03/31 00:16:03;;;;;;;3.90;1.70;;;;;;;10.65;65.02;99727.81;79472;1300;3019191;-60
2024/03/31 00:18:29;;;;;;;7.20;2.30;;;;;;;10.64;65.01;99727.18;79395;1298;3011562;-61
2024/03/31 00:20:58;;;;;;;4.10;1.90;;;;;;;10.58;65.01;99726.27;78242;1296;3025937;-61
2024/03/31 00:23:25;;;;;;;5.40;2.10;;;;;;;10.48;65.53;99724.52;79500;1295;3014155;-62
2024/03/31 00:25:56;;;;;;;3.90;1.70;;;;;;;10.47;65.22;99726.35;79263;1296;3011866;-61
2024/03/31 00:28:24;;;;;;;5.00;1.70;;;;;;;10.45;65.29;99725.38;78059;1298;3049689;-60
2024/03/31 00:30:55;;;;;;;7.30;3.00;;;;;;;10.51;65.25;99727.38;79404;1300;3013110;-63
2024/03/31 00:33:24;;;;;;;3.00;1.70;;;;;;;10.49;65.00;99734.29;78027;1300;3068756;-62
2024/03/31 00:35:52;;;;;;;4.50;2.10;;;;;;;10.50;64.75;99730.95;79338;1297;3013604;-62
2024/03/31 00:38:18;;;;;;;5.60;1.80;;;;;;;10.53;64.60;99735.14;79724;1296;3013642;-61
2024/03/31 00:40:47;;;;;;;6.20;1.90;;;;;;;10.53;64.48;99729.00;78149;1296;3052940;-62
2024/03/31 00:43:14;;;;;;;6.80;1.70;;;;;;;10.58;64.26;99731.88;79267;1298;3013775;-62
2024/03/31 00:45:41;;;;;;;5.10;1.50;;;;;;;10.54;64.19;99732.59;79563;1298;3012930;-61
2024/03/31 00:48:09;;;;;;;6.90;1.70;;;;;;;10.55;64.02;99724.34;78181;1298;3069657;-61
2024/03/31 00:50:36;;;;;;;4.60;1.60;;;;;;;10.56;64.12;99725.33;79273;1298;3018849;-62
2024/03/31 00:53:03;;;;;;;4.20;1.80;;;;;;;10.52;64.28;99722.35;79368;1296;3013312;-62
2024/03/31 00:55:31;;;;;;;3.70;2.10;;;;;;;10.51;64.00;99724.36;78284;1299;3026505;-63
2024/03/31 00:57:58;;;;;;;3.40;1.70;;;;;;;10.48;64.21;99727.87;79343;1297;3013796;-62
2024/03/31 01:00:25;;;;;;;3.30;1.70;;;;;;;10.48;64.15;99727.88;79246;1298;3013004;-62
2024/03/31 01:02:53;;;;;;;3.20;2.00;;;;;;;10.49;64.04;99726.41;78302;1297;3028474;-61
2024/03/31 01:05:20;;;;;;;3.90;1.50;;;;;;;10.50;63.73;99726.37;79143;1296;3013491;-62
2024/03/31 01:07:46;;;;;;;3.70;1.40;;;;;;;10.49;63.80;99726.41;79463;1296;3011492;-62
2024/03/31 01:10:14;;;;;;;4.00;1.60;;;;;;;10.52;63.58;99726.80;78235;1296;3025860;-61
2024/03/31 01:12:42;;;;;;;3.20;2.10;;;;;;;10.42;64.02;99723.98;79309;1301;3013110;-61
2024/03/31 01:15:14;;;;;;;7.00;1.80;;;;;;;10.39;63.93;99727.52;78147;1301;3053705;-62
2024/03/31 01:17:41;;;;;;;4.90;1.50;;;;;;;10.37;64.03;99734.98;79278;1298;3013519;-63
2024/03/31 01:20:08;;;;;;;3.80;1.90;;;;;;;10.39;63.90;99737.98;79169;1300;3011532;-59
2024/03/31 01:22:36;;;;;;;4.40;1.80;;;;;;;10.35;63.90;99737.01;78254;1297;3026124;-61
2024/03/31 01:25:05;;;;;;;3.30;1.40;;;;;;;10.34;63.96;99739.31;79336;1295;3013091;-61
2024/03/31 01:27:31;;;;;;;3.00;1.60;;;;;;;10.33;63.86;99735.36;79587;1297;3011903;-63
2024/03/31 01:29:59;;;;;;;4.50;1.50;;;;;;;10.29;64.20;99731.52;78049;1300;3053633;-61
2024/03/31 01:32:26;;;;;;;4.50;1.50;;;;;;;10.27;64.04;99732.02;79515;1298;3013220;-62
2024/03/31 01:34:52;;;;;;;4.30;1.60;;;;;;;10.29;64.02;99736.23;79527;1300;3011790;-60
2024/03/31 01:37:20;;;;;;;4.00;1.70;;;;;;;10.30;64.02;99735.16;78087;1294;3026401;-60
2024/03/31 01:39:47;;;;;;;3.30;1.30;;;;;;;10.24;64.29;99732.30;79287;1300;3013242;-62
2024/03/31 01:42:13;;;;;;;5.00;1.90;;;;;;;10.25;64.21;99735.75;79513;1298;3012861;-63
2024/03/31 01:44:41;;;;;;;4.40;1.70;;;;;;;10.28;63.95;99738.42;78033;1300;3028171;-60
2024/03/31 01:47:08;;;;;;;4.80;1.80;;;;;;;10.30;63.76;99740.23;79874;1297;3012964;-64
2024/03/31 01:49:34;;;;;;;4.80;1.40;;;;;;;10.31;63.82;99745.07;79674;1295;3011691;-61
2024/03/31 01:52:03;;;;;;;5.80;1.80;;;;;;;10.33;63.50;99744.81;78344;1298;3026265;-60
2024/03/31 01:54:33;;;;;;;4.60;1.80;;;;;;;10.38;63.37;99745.92;79341;1294;3011393;-59
2024/03/31 01:57:02;;;;;;;9.90;2.10;;;;;;;10.40;62.94;99737.74;79009;1295;3011651;-61
2024/03/31 01:59:28;;;;;;;3.80;1.60;;;;;;;10.45;62.85;99742.05;81838;1295;3013018;-62
2024/03/31 02:01:55;;;;;;;5.20;1.80;;;;;;;10.49;62.44;99741.85;81875;1295;3011360;-60
2024/03/31 02:04:23;;;;;;;9.40;2.10;;;;;;;10.53;62.29;99747.77;80616;1297;3026241;-60
2024/03/31 02:06:50;;;;;;;3.20;1.70;;;;;;;10.44;62.72;99748.07;81961;1295;3018499;-62
2024/03/31 02:09:16;;;;;;;9.70;1.90;;;;;;;10.49;62.42;99749.36;81957;1295;3011336;-62
2024/03/31 02:11:44;;;;;;;4.30;1.90;;;;;;;10.48;62.35;99751.16;80624;1296;3026155;-60
2024/03/31 02:14:10;;;;;;;6.60;2.00;;;;;;;10.53;61.93;99739.86;81011;1298;3013163;-60
2024/03/31 02:16:37;;;;;;;3.10;2.00;;;;;;;10.56;61.79;99745.80;79208;1300;3011519;-59
2024/03/31 02:19:05;;;;;;;6.70;2.70;;;;;;;10.59;61.58;99741.81;78248;1298;3026398;-60
2024/03/31 02:21:31;;;;;;;5.00;2.80;;;;;;;10.65;61.19;99743.23;79376;1294;3020618;-59
2024/03/31 02:23:58;;;;;;;4.50;2.00;;;;;;;10.60;61.33;99739.14;79425;1298;3011591;-61
2024/03/31 02:26:26;;;;;;;4.50;2.20;;;;;;;10.59;61.48;99742.50;78325;1298;3027996;-60
2024/03/31 02:28:53;;;;;;;7.40;2.10;;;;;;;10.54;61.43;99738.23;79368;1294;3018393;-59
2024/03/31 02:31:20;;;;;;;6.50;2.00;;;;;;;10.51;61.53;99738.73;79392;1300;3011533;-60
2024/03/31 02:33:48;;;;;;;6.90;2.40;;;;;;;10.55;61.33;99735.73;78013;1301;3028175;-62
2024/03/31 02:36:14;;;;;;;6.30;2.10;;;;;;;10.52;61.45;99734.16;79375;1300;3013925;-61
2024/03/31 02:38:41;;;;;;;4.50;2.20;;;;;;;10.53;61.21;99736.51;79204;1298;3012051;-60
2024/03/31 02:41:09;;;;;;;3.70;1.80;;;;;;;10.53;61.38;99737.57;78150;1298;3025951;-62
2024/03/31 02:43:38;;;;;;;7.50;2.10;;;;;;;10.49;61.49;99739.40;79383;1300;3013180;-61
2024/03/31 02:46:05;;;;;;;5.90;2.00;;;;;;;10.43;61.59;99742.67;79341;1294;3011517;-62
2024/03/31 02:48:33;;;;;;;7.30;2.10;;;;;;;10.41;61.86;99745.94;78206;1298;3051031;-61
2024/03/31 02:51:00;;;;;;;8.10;2.30;;;;;;;10.34;62.10;99742.61;79420;1298;3013471;-61
2024/03/31 02:53:27;;;;;;;3.40;2.20;;;;;;;10.33;62.27;99746.34;79246;1298;3013206;-60
2024/03/31 02:55:54;;;;;;;4.60;2.30;;;;;;;10.34;62.30;99743.16;78318;1298;3025532;-60
2024/03/31 02:58:21;;;;;;;4.40;2.50;;;;;;;10.31;62.56;99745.41;79793;1298;3013445;-62
2024/03/31 03:00:48;;;;;;;8.90;2.30;;;;;;;10.28;62.86;99745.26;79237;1300;3011552;-62
2024/03/31 03:03:16;;;;;;;8.70;2.10;;;;;;;10.28;63.11;99751.20;78132;1304;3051587;-61
2024/03/31 03:05:43;;;;;;;7.40;2.30;;;;;;;10.28;63.20;99746.49;79177;1296;3013419;-60
2024/03/31 03:08:09;;;;;;;6.30;1.90;;;;;;;10.22;63.53;99746.62;79260;1298;3013521;-60
2024/03/31 03:10:37;;;;;;;7.50;2.00;;;;;;;10.20;63.65;99743.37;78155;1300;3026535;-60
2024/03/31 03:13:04;;;;;;;6.70;2.20;;;;;;;10.20;63.88;99736.73;79307;1300;3013253;-61
2024/03/31 03:15:31;;;;;;;7.20;2.50;;;;;;;10.20;63.95;99749.00;79334;1300;3011482;-61
2024/03/31 03:17:59;;;;;;;6.20;2.10;;;;;;;10.19;64.14;99748.15;78052;1298;3026109;-62
2024/03/31 03:20:25;;;;;;;5.70;2.10;;;;;;;10.14;64.48;99748.80;79175;1297;3013039;-62
2024/03/31 03:22:59;;;;;;;8.20;2.40;;;;;;;10.08;64.65;99753.29;79424;1298;3013027;-61
2024/03/31 03:25:26;;;;;;;5.50;2.30;;;;;;;10.05;64.98;99752.22;78147;1300;3049177;-61
2024/03/31 03:27:54;;;;;;;9.00;3.40;;;;;;;9.96;65.30;99755.88;79439;1295;3013659;-61
2024/03/31 03:30:21;;;;;;;7.50;3.40;;;;;;;9.93;65.58;99755.34;79245;1298;3013460;-60
2024/03/31 03:32:52;;;;;;;6.70;2.90;;;;;;;9.92;65.60;99762.39;78175;1298;3052765;-62
2024/03/31 03:35:19;;;;;;;6.10;3.00;;;;;;;9.87;65.86;99762.32;79304;1298;3011602;-61
2024/03/31 03:37:48;;;;;;;6.30;2.70;;;;;;;9.83;65.95;99766.21;78721;1300;3012981;-61
2024/03/31 03:40:15;;;;;;;8.40;2.80;;;;;;;9.74;66.62;99766.67;79676;1298;3012849;-61
2024/03/31 03:42:41;;;;;;;5.90;2.80;;;;;;;9.79;66.55;99766.43;79142;1300;3013102;-62
2024/03/31 03:45:09;;;;;;;6.20;3.50;;;;;;;9.72;67.02;99762.19;78182;1301;3026680;-62
2024/03/31 03:47:37;;;;;;;7.20;2.70;;;;;;;9.80;66.74;99763.89;79538;1298;3013399;-62
2024/03/31 03:50:04;;;;;;;5.40;3.00;;;;;;;9.86;66.66;99767.08;79346;1296;3012300;-61
2024/03/31 03:52:32;;;;;;;7.30;3.50;;;;;;;9.76;67.29;99765.86;78267;1300;3049550;-61
2024/03/31 03:54:59;;;;;;;13.30;2.80;;;;;;;9.79;67.25;99767.81;79327;1295;3013107;-62
2024/03/31 03:57:26;;;;;;;12.20;2.40;;;;;;;9.74;67.71;99770.33;79400;1296;3011392;-61
2024/03/31 03:59:54;;;;;;;8.00;2.00;;;;;;;9.70;67.98;99774.19;78045;1301;3052424;-60
2024/03/31 04:02:20;;;;;;;6.40;2.00;;;;;;;9.75;67.99;99769.58;79426;1295;3018167;-61
2024/03/31 04:04:47;;;;;;;5.10;1.80;;;;;;;9.75;68.10;99775.00;79593;1298;3013570;-63
2024/03/31 04:07:15;;;;;;;6.80;1.80;;;;;;;9.76;68.33;99774.10;78129;1301;3027354;-64
2024/03/31 04:09:42;;;;;;;5.30;1.80;;;;;;;9.76;68.54;99768.13;79381;1296;3013505;-61
2024/03/31 04:12:10;;;;;;;6.40;1.90;;;;;;;9.79;68.76;99769.90;79036;1298;3014034;-61
2024/03/31 04:14:38;;;;;;;5.90;1.90;;;;;;;9.79;68.74;99776.20;78260;1297;3054780;-61
2024/03/31 04:17:05;;;;;;;5.40;1.70;;;;;;;9.77;68.97;99777.86;79822;1295;3018556;-60
2024/03/31 04:19:32;;;;;;;11.20;2.10;;;;;;;9.79;69.12;99777.94;79168;1300;3011796;-62
2024/03/31 04:22:00;;;;;;;5.00;1.80;;;;;;;9.83;69.15;99768.82;77979;1301;3025324;-63
2024/03/31 04:24:27;;;;;;;5.90;1.70;;;;;;;9.84;69.14;99769.99;79400;1298;3013310;-60
2024/03/31 04:26:53;;;;;;;4.40;1.50;;;;;;;9.86;69.17;99769.16;79570;1300;3011663;-60
2024/03/31 04:29:21;;;;;;;11.40;2.20;;;;;;;9.98;68.93;99769.44;78406;1298;3028788;-60
2024/03/31 04:31:57;;;;;;;6.60;1.80;;;;;;;9.99;69.09;99768.16;79633;1298;3018414;-61
2024/03/31 04:34:27;;;;;;;12.80;1.80;;;;;;;10.00;69.34;99766.35;78187;1300;3057069;-60
2024/03/31 04:36:56;;;;;;;6.60;1.30;;;;;;;10.04;69.20;99759.84;79356;1300;3012708;-61
2024/03/31 04:39:25;;;;;;;12.10;1.80;;;;;;;10.14;68.90;99769.29;78934;1299;3013347;-59
2024/03/31 04:41:53;;;;;;;7.40;1.80;;;;;;;10.17;68.95;99769.11;79548;1295;3013737;-61
2024/03/31 04:44:19;;;;;;;5.10;1.30;;;;;;;10.24;68.91;99772.20;79508;1300;3013188;-61
2024/03/31 04:46:49;;;;;;;9.80;2.30;;;;;;;10.29;68.57;99770.02;78297;1298;3068089;-60
2024/03/31 04:49:17;;;;;;;8.30;2.00;;;;;;;10.34;68.56;99782.56;79443;1298;3012857;-59
2024/03/31 04:51:50;;;;;;;8.40;2.20;;;;;;;10.31;69.19;99775.53;78296;1298;3026143;-60
2024/03/31 04:54:18;;;;;;;;;;;;;;;10.32;69.24;99778.30;79259;1300;3012957;-60
2024/03/31 04:56:47;;;;;;;4.60;1.60;;;;;;;10.37;69.25;99772.45;77993;1300;3052459;-60
2024/03/31 04:59:16;;;;;;;6.50;2.10;;;;;;;10.48;68.58;99777.23;80240;1300;3011339;-60
2024/03/31 05:01:45;;;;;;;6.20;1.80;;;;;;;10.38;69.40;99780.77;78779;1300;3013431;-62
2024/03/31 05:04:11;;;;;;;5.50;1.90;;;;;;;10.42;69.40;99777.61;79266;1298;3012888;-61
2024/03/31 05:06:39;;;;;;;10.20;2.30;;;;;;;10.46;69.20;99783.48;79583;1295;3011811;-61
2024/03/31 05:09:07;;;;;;;8.80;2.40;;;;;;;10.45;69.36;99787.76;77892;1296;3056614;-60
2024/03/31 05:11:34;;;;;;;5.90;2.20;;;;;;;10.49;69.12;99794.89;80117;1296;3018250;-60
2024/03/31 05:14:02;;;;;;;12.90;2.80;;;;;;;10.49;68.83;99800.30;81321;1297;3011192;-63
2024/03/31 05:16:31;;;;;;;7.90;2.40;;;;;;;10.45;69.39;99798.80;78067;1300;3051822;-61
2024/03/31 05:18:58;;;;;;;9.20;2.10;;;;;;;10.51;69.34;99800.37;81161;1297;3013242;-61
2024/03/31 05:21:25;;;;;;;8.00;1.80;;;;;;;10.52;69.68;99799.98;81946;1298;3011573;-61
2024/03/31 05:23:53;;;;;;;12.60;2.70;;;;;;;10.63;69.26;99803.44;80684;1295;3027594;-62
2024/03/31 05:26:31;;;;;;;7.00;1.80;;;;;;;10.69;69.37;99794.85;78046;1295;3049427;-62
2024/03/31 05:28:58;;;;;;;7.80;1.90;;;;;;;10.73;69.19;99800.03;79412;1296;3013260;-59
2024/03/31 05:31:25;;;;;;;9.50;1.90;;;;;;;10.69;69.11;99805.52;79343;1299;3011519;-60
2024/03/31 05:34:06;;;;;;;10.80;2.50;;;;;;;10.76;68.70;99805.33;78095;1298;3053392;-61
2024/03/31 05:36:36;;;;;;;6.70;1.70;;;;;;;10.80;68.54;99810.87;79207;1296;3013664;-62
2024/03/31 05:39:06;;;;;;;8.80;1.80;;;;;;;10.88;68.01;99807.80;78935;1296;3013286;-62
2024/03/31 05:41:33;;;;;;;6.90;1.70;;;;;;;10.94;67.94;99814.63;79276;1298;3015261;-59
2024/03/31 05:44:00;;;;;;;6.80;1.90;;;;;;;10.98;67.39;99820.92;79516;1295;3012110;-60
2024/03/31 05:46:29;;;;;;;7.70;1.70;;;;;;;11.06;66.95;99817.14;78081;1300;3049913;-61
2024/03/31 05:48:56;;;;;;;11.70;1.80;;;;;;;11.18;66.59;99816.95;79422;1300;3012707;-62
2024/03/31 05:51:29;;;;;;;8.70;1.60;;;;;;;11.20;66.07;99819.28;78060;1298;3052639;-59
2024/03/31 05:53:55;;;;;;;9.40;2.80;;;;;;;11.38;65.67;99817.27;79405;1298;3013804;-61
2024/03/31 05:56:23;;;;;;;7.40;1.50;;;;;;;11.48;64.46;99816.64;79373;1298;3012993;-62
2024/03/31 05:58:50;;;;;;;15.20;1.80;;;;;;;11.59;63.67;99823.86;78194;1300;3050429;-62
2024/03/31 06:01:19;;;;;;;6.30;1.90;;;;;;;11.67;63.26;99821.51;79246;1298;3012860;-62
2024/03/31 06:03:46;;;;;;;7.80;1.60;;;;;;;11.74;62.64;99822.65;79340;1296;3013456;-62
2024/03/31 06:06:14;;;;;;;9.80;1.40;;;;;;;11.81;62.60;99819.64;78106;1301;3052609;-61
2024/03/31 06:08:40;;;;;;;6.40;2.00;;;;;;;11.85;62.77;99824.95;79442;1298;3012823;-61
2024/03/31 06:11:07;;;;;;;5.60;1.60;;;;;;;12.01;62.03;99828.81;79413;1300;3012942;-62
2024/03/31 06:13:35;;;;;;;6.00;1.80;;;;;;;12.08;62.01;99826.10;78322;1295;3026608;-61
2024/03/31 06:16:03;;;;;;;6.10;1.60;;;;;;;12.18;61.21;99829.02;79299;1298;3013284;-63
2024/03/31 06:18:30;;;;;;;4.30;1.40;;;;;;;12.24;60.50;99820.71;79437;1296;3013281;-61
2024/03/31 06:21:04;;;;;;;5.50;1.60;;;;;;;12.40;60.56;99823.23;78462;1298;3052384;-62
2024/03/31 06:23:32;;;;;;;4.80;1.40;;;;;;;12.53;59.77;99828.97;79336;1298;3011775;-61
2024/03/31 06:26:00;;;;;;;7.10;1.70;;;;;;;12.55;58.97;99826.52;78047;1301;3054051;-62
2024/03/31 06:28:29;;;;;;;8.10;1.80;;;;;;;12.70;58.24;99818.23;79396;1300;3013646;-61
2024/03/31 06:30:55;;;;;;;6.20;1.20;;;;;;;12.79;58.16;99820.09;79198;1296;3011565;-61
2024/03/31 06:33:24;;;;;;;6.20;1.50;;;;;;;12.89;57.41;99824.89;77947;1299;3050741;-64
2024/03/31 06:35:51;;;;;;;5.00;1.30;;;;;;;12.88;57.25;99827.60;79524;1299;3013666;-61
2024/03/31 06:38:17;;;;;;;5.80;1.50;;;;;;;12.93;56.63;99827.61;79513;1297;3013652;-62
2024/03/31 06:40:46;;;;;;;3.70;1.10;;;;;;;12.99;56.14;99827.23;78183;1298;3052392;-62
2024/03/31 06:43:13;;;;;;;3.60;1.20;;;;;;;13.11;55.03;99826.64;79528;1296;3013315;-63
2024/03/31 06:45:40;;;;;;;4.60;1.20;;;;;;;13.25;55.25;99830.44;79528;1298;3011830;-63
2024/03/31 06:48:08;;;;;;;5.20;1.50;;;;;;;13.35;55.43;99826.85;78258;1300;3026019;-61
2024/03/31 06:50:35;;;;;;;6.60;1.50;;;;;;;13.46;54.52;99831.04;79448;1298;3013547;-61
2024/03/31 06:53:01;;;;;;;7.30;1.50;;;;;;;13.49;54.56;99832.27;79253;1300;3011509;-60
2024/03/31 06:55:30;;;;;;;3.70;1.40;;;;;;;13.61;53.49;99840.30;78086;1298;3026769;-63
2024/03/31 06:57:57;;;;;;;7.10;1.40;;;;;;;13.68;53.51;99840.14;79773;1299;3012981;-61
2024/03/31 07:00:23;;;;;;;3.80;1.50;;;;;;;13.80;52.76;99848.84;79221;1299;3011684;-62
2024/03/31 07:02:51;;;;;;;6.20;1.70;;;;;;;13.85;53.07;99846.41;78012;1299;3048574;-65
2024/03/31 07:05:18;;;;;;;4.40;1.50;;;;;;;13.94;53.63;99846.98;79245;1300;3013905;-62
2024/03/31 07:07:45;;;;;;;7.60;1.70;;;;;;;14.19;53.38;99842.98;79251;1302;3011874;-62
2024/03/31 07:10:14;;;;;;;8.70;1.80;;;;;;;14.35;52.99;99845.03;78661;1310;3026547;-65
2024/03/31 07:12:41;;;;;;;4.70;1.50;;;;;;;14.41;51.97;99852.05;79856;1298;3012832;-63
2024/03/31 07:15:08;;;;;;;6.50;1.50;;;;;;;14.49;51.34;99843.52;79541;1296;3013313;-63
2024/03/31 07:17:36;;;;;;;7.10;1.70;;;;;;;14.67;51.54;99844.58;78112;1295;3049627;-63
2024/03/31 07:20:05;;;;;;;5.30;1.40;;;;;;;14.74;51.64;99846.36;79377;1299;3013699;-61
2024/03/31 07:22:32;;;;;;;7.40;1.80;;;;;;;14.89;51.24;99844.46;79571;1301;3012112;-61
2024/03/31 07:25:00;;;;;;;6.30;1.70;;;;;;;14.99;50.39;99847.73;78151;1296;3051799;-62
2024/03/31 07:27:26;;;;;;;7.40;1.50;;;;;;;15.08;49.56;99848.34;79337;1300;3012769;-63
2024/03/31 07:29:53;;;;;;;7.10;1.50;;;;;;;15.13;49.80;99848.89;79289;1300;3011928;-59
2024/03/31 07:32:21;;;;;;;9.40;1.80;;;;;;;15.27;49.27;99847.11;78008;1304;3028578;-62
2024/03/31 07:34:48;;;;;;;5.90;1.40;;;;;;;15.38;48.25;99850.95;79942;1303;3013503;-60
2024/03/31 07:37:15;;;;;;;5.20;1.40;;;;;;;15.46;47.83;99851.53;79574;1297;3011536;-61
2024/03/31 07:39:43;;;;;;;4.50;1.40;;;;;;;15.52;47.65;99847.08;77984;1300;3052335;-63
2024/03/31 07:42:10;;;;;;;4.40;1.60;;;;;;;15.64;47.86;99847.02;79299;1298;3015689;-62
2024/03/31 07:44:36;;;;;;;5.70;1.60;;;;;;;15.77;47.25;99846.92;79301;1300;3013243;-60
2024/03/31 07:47:05;;;;;;;5.20;1.20;;;;;;;15.90;46.89;99848.64;78151;1301;3027493;-59
2024/03/31 07:49:31;;;;;;;6.80;1.20;;;;;;;16.09;46.34;99847.89;79580;1301;3013422;-62
2024/03/31 07:51:58;;;;;;;7.40;1.50;;;;;;;16.21;45.84;99848.05;79413;1300;3013416;-64
2024/03/31 07:54:26;;;;;;;2.60;1.10;;;;;;;16.18;45.30;99847.14;78290;1300;3052082;-61
2024/03/31 07:56:53;;;;;;;6.50;1.30;;;;;;;16.30;45.51;99849.92;79533;1298;3013043;-60
2024/03/31 07:59:19;;;;;;;5.00;1.40;;;;;;;16.42;44.73;99843.33;79301;1302;3013157;-62
2024/03/31 08:01:47;;;;;;;7.60;2.00;;;;;;;16.64;44.85;99841.27;78170;1300;3029212;-61
2024/03/31 08:04:14;;;;;;;2.80;1.30;;;;;;;16.79;43.48;99850.89;79398;1300;3012984;-62
2024/03/31 08:06:41;;;;;;;4.00;1.00;;;;;;;16.85;42.26;99843.84;79470;1299;3011644;-61
2024/03/31 08:09:08;;;;;;;5.30;1.40;;;;;;;17.00;41.31;99843.76;78342;1302;3026427;-63
2024/03/31 08:11:35;;;;;;;4.30;1.10;;;;;;;17.17;41.18;99844.79;80078;1296;3012752;-61
2024/03/31 08:14:01;;;;;;;4.00;1.00;;;;;;;17.30;38.53;99839.11;79395;1300;3011479;-60
2024/03/31 08:16:29;;;;;;;5.30;1.30;;;;;;;17.47;39.10;99843.92;78101;1299;3028860;-61
2024/03/31 08:18:57;;;;;;;9.10;1.40;;;;;;;17.53;38.60;99835.45;79495;1299;3018955;-59
2024/03/31 08:21:24;;;;;;;4.20;1.30;;;;;;;17.69;36.58;99836.94;79280;1300;3011992;-58
2024/03/31 08:23:52;;;;;;;5.50;1.10;;;;;;;17.86;36.22;99836.95;78124;1298;3052895;-61
2024/03/31 08:26:19;;;;;;;5.40;1.20;;;;;;;18.03;34.13;99838.94;79330;1300;3013740;-63
2024/03/31 08:28:45;;;;;;;5.20;1.00;;;;;;;18.16;33.74;99847.02;79424;1297;3011647;-61
2024/03/31 08:31:13;;;;;;;2.10;0.80;;;;;;;18.25;33.67;99844.99;79331;1300;3028099;-62
2024/03/31 08:33:40;;;;;;;4.10;0.80;;;;;;;18.30;32.95;99843.71;79336;1301;3013357;-63
2024/03/31 08:36:06;;;;;;;5.70;0.70;;;;;;;18.40;32.72;99836.38;79253;1311;3013139;-62
2024/03/31 08:38:35;;;;;;;3.30;0.70;;;;;;;18.57;31.91;99844.35;78088;1300;3026251;-63
2024/03/31 08:41:05;;;;;;;4.30;0.70;;;;;;;18.69;31.72;99837.21;79354;1297;3013350;-61
2024/03/31 08:43:38;;;;;;;7.20;1.60;;;;;;;18.67;31.56;99839.88;78381;1300;3053981;-61
2024/03/31 08:46:06;;;;;;;3.00;0.80;;;;;;;18.76;30.98;99843.15;79603;1299;3011672;-62
2024/03/31 08:48:37;;;;;;;8.70;3.50;;;;;;;18.78;31.07;99844.23;78621;1299;3052075;-64
2024/03/31 08:51:06;;;;;;;5.10;0.60;;;;;;;18.72;30.85;99843.36;79428;1298;3011824;-62
2024/03/31 08:53:34;;;;;;;1.40;0.70;;;;;;;18.82;30.95;99843.17;78174;1298;3069573;-61
2024/03/31 08:56:01;;;;;;;5.00;1.00;;;;;;;19.07;30.38;99836.39;79472;1298;3019253;-63
2024/03/31 08:58:28;;;;;;;3.70;1.20;;;;;;;19.11;29.51;99840.48;79441;1299;3011620;-63
2024/03/31 09:00:55;;;;;;;2.60;0.90;;;;;;;19.25;29.34;99842.20;78072;1295;3028805;-62
2024/03/31 09:03:22;;;;;;;3.50;1.00;;;;;;;19.31;28.67;99853.77;79227;1301;3013348;-64
2024/03/31 09:05:49;;;;;;;2.70;0.90;;;;;;;19.40;28.04;99838.85;79331;1296;3011727;-65
2024/03/31 09:08:17;;;;;;;2.60;1.20;;;;;;;19.53;27.67;99842.83;78344;1298;3028958;-62
2024/03/31 09:10:43;;;;;;;6.60;0.90;;;;;;;19.55;27.64;99843.92;79521;1297;3013555;-63
2024/03/31 09:13:11;;;;;;;4.40;1.00;;;;;;;19.67;27.05;99834.67;79291;1296;3012979;-62
2024/03/31 09:15:40;;;;;;;2.30;0.80;;;;;;;19.75;26.95;99843.55;78182;1296;3053594;-61
2024/03/31 09:18:07;;;;;;;2.80;0.80;;;;;;;19.74;26.97;99843.75;79470;1298;3013900;-61
2024/03/31 09:20:34;;;;;;;2.60;0.90;;;;;;;19.83;26.86;99841.14;79364;1300;3011629;-63
2024/03/31 09:23:02;;;;;;;4.10;0.80;;;;;;;20.00;26.20;99836.98;78342;1298;3068627;-61
2024/03/31 09:25:29;;;;;;;5.10;0.70;;;;;;;20.06;25.42;99832.77;79255;1300;3013153;-63
2024/03/31 09:27:56;;;;;;;1.50;0.70;;;;;;;20.21;25.78;99834.05;79359;1295;3011618;-65
2024/03/31 09:30:25;;;;;;;2.50;0.60;;;;;;;20.34;25.79;99835.84;78201;1296;3053908;-62
2024/03/31 09:32:52;;;;;;;5.90;0.60;;;;;;;20.32;26.00;99835.52;79444;1299;3013623;-62
2024/03/31 09:35:18;;;;;;;2.00;0.70;;;;;;;20.44;25.40;99837.04;79416;1295;3011626;-61
2024/03/31 09:37:46;;;;;;;2.70;0.80;;;;;;;20.42;24.64;99833.88;78106;1298;3026013;-63
2024/03/31 09:40:13;;;;;;;4.40;1.10;;;;;;;20.40;24.68;99837.82;79269;1297;3020799;-62
2024/03/31 09:42:40;;;;;;;1.90;0.40;;;;;;;20.60;24.48;99837.84;79184;1296;3011726;-61
2024/03/31 09:45:12;;;;;;;3.40;0.60;;;;;;;20.68;23.31;99839.59;78144;1295;3054012;-61
2024/03/31 09:47:45;;;;;;;1.60;0.60;;;;;;;20.62;23.55;99840.05;79364;1297;3011255;-59
2024/03/31 09:50:22;;;;;;;4.40;1.00;;;;;;;20.71;23.66;99838.70;78268;1299;3052322;-62
2024/03/31 09:52:51;;;;;;;2.60;0.90;;;;;;;20.79;23.70;99839.67;78081;1300;3052803;-61
2024/03/31 09:55:22;;;;;;;1.90;0.80;;;;;;;20.87;23.45;99833.42;79593;1297;3011593;-63
2024/03/31 09:57:51;;;;;;;1.70;0.70;;;;;;;21.06;23.33;99831.54;78281;1298;3052389;-62
2024/03/31 10:00:18;;;;;;;1.70;0.50;;;;;;;21.10;22.67;99843.10;79913;1295;3015402;-61
2024/03/31 10:02:50;;;;;;;1.40;0.50;;;;;;;21.09;22.63;99835.02;79256;1296;3011543;-64
2024/03/31 10:05:26;;;;;;;2.60;0.60;;;;;;;21.20;22.82;99831.63;78088;1297;3050174;-63
2024/03/31 10:07:53;;;;;;;1.70;0.50;;;;;;;21.12;22.88;99828.13;78088;1300;3052408;-61
2024/03/31 10:10:20;;;;;;;5.20;1.10;;;;;;;21.19;22.95;99830.46;79260;1300;3013387;-61
2024/03/31 10:12:48;;;;;;;2.70;0.40;;;;;;;21.32;22.40;99819.21;79164;1303;3011579;-62
2024/03/31 10:15:16;;;;;;;4.40;0.50;;;;;;;21.47;22.29;99824.35;78372;1294;3056218;-62
2024/03/31 10:17:42;;;;;;;3.40;0.40;;;;;;;21.63;22.23;99816.16;79657;1298;3013428;-61
2024/03/31 10:20:09;;;;;;;3.80;0.60;;;;;;;21.53;21.94;99823.39;79152;1296;3011663;-62
2024/03/31 10:22:37;;;;;;;5.30;1.10;;;;;;;21.60;22.11;99816.81;78241;1301;3028513;-62
2024/03/31 10:25:04;;;;;;;2.80;0.50;;;;;;;21.59;21.22;99821.33;79565;1302;3018522;-62
2024/03/31 10:27:31;;;;;;;1.80;0.60;;;;;;;21.65;20.95;99818.66;79284;1297;3011633;-62
2024/03/31 10:29:59;;;;;;;2.20;0.90;;;;;;;21.64;20.24;99821.73;78163;1298;3056922;-60
2024/03/31 10:32:26;;;;;;;4.60;1.70;;;;;;;21.72;20.35;99818.27;79382;1295;3013018;-67
2024/03/31 10:34:53;;;;;;;3.00;1.10;;;;;;;21.94;20.39;99811.00;80297;1297;3011521;-63
2024/03/31 10:37:21;;;;;;;6.20;1.20;;;;;;;21.99;19.54;99810.49;78168;1301;3028051;-66
2024/03/31 10:39:47;;;;;;;1.60;0.90;;;;;;;21.99;19.47;99810.31;79595;1297;3013475;-63
2024/03/31 10:42:15;;;;;;;2.80;0.80;;;;;;;22.00;18.63;99808.65;79243;1296;3013294;-62
2024/03/31 10:44:43;;;;;;;1.60;0.80;;;;;;;22.23;18.83;99800.57;78120;1298;3026473;-62
2024/03/31 10:47:10;;;;;;;2.50;0.80;;;;;;;22.28;18.86;99809.81;79365;1295;3012825;-61
2024/03/31 10:49:40;;;;;;;5.30;0.90;;;;;;;22.17;19.41;99809.73;79271;1296;3011504;-61
2024/03/31 10:52:15;;;;;;;1.80;0.50;;;;;;;22.18;19.14;99805.86;78127;1299;3052774;-63
2024/03/31 10:54:44;;;;;;;2.80;0.50;;;;;;;22.24;18.17;99802.74;78883;1299;3011873;-61
2024/03/31 10:57:11;;;;;;;1.40;0.60;;;;;;;22.29;18.89;99789.37;79454;1298;3018415;-62
2024/03/31 10:59:39;;;;;;;4.60;0.60;;;;;;;22.45;18.92;99788.85;79268;1298;3011660;-62
2024/03/31 11:02:11;;;;;;;2.60;0.70;;;;;;;22.45;18.62;99794.59;78427;1298;3057729;-62
2024/03/31 11:04:38;;;;;;;1.70;0.40;;;;;;;22.35;18.51;99783.25;79293;1300;3011734;-63
2024/03/31 11:07:06;;;;;;;3.10;0.70;;;;;;;22.38;18.99;99778.28;78173;1296;3026519;-62
2024/03/31 11:09:33;;;;;;;2.70;0.90;;;;;;;22.57;18.95;99761.64;79610;1298;3012870;-63
2024/03/31 11:12:00;;;;;;;2.90;1.20;;;;;;;22.66;19.37;99761.95;79153;1300;3013015;-61
2024/03/31 11:14:27;;;;;;;2.70;0.90;;;;;;;22.56;20.10;99762.84;78346;1299;3069722;-62
2024/03/31 11:16:54;;;;;;;4.40;1.50;;;;;;;22.54;20.29;99766.08;79292;1295;3013904;-61
2024/03/31 11:19:21;;;;;;;3.60;1.30;;;;;;;22.66;20.55;99753.02;79448;1301;3011730;-61